Aviation Digital Data Service (ADDS)

Output produced by METARs form (0523 UTC 16 December 2017)
found at http://www.aviationweather.gov/adds/metars/
 
KAPC 160454Z AUTO 00000KT 7SM FEW110 08/06 A3003 RMK AO2 SLP161 T00830061
KAPC 160354Z AUTO 13007KT 7SM CLR 09/06 A3004 RMK AO2 SLP164 T00890061
KAPC 160254Z 21004KT 7SM CLR 10/07 A3004 RMK AO2 SLP165 T01000067 58004
KAPC 160154Z 20005KT 8SM CLR 11/06 A3004 RMK AO2 SLP163 T01060056
KAPC 160054Z 00000KT 9SM CLR 12/06 A3006 RMK AO2 SLP171 T01220061 $
KAPC 152354Z 14003KT 9SM CLR 14/06 A3006 RMK AO2 SLP169 T01390061 10156 20083 56019 $
KAPC 152254Z 24003KT 9SM CLR 15/06 A3007 RMK AO2 SLP174 T01500056 $
KAPC 152154Z 23004KT 8SM CLR 14/06 A3009 RMK AO2 SLP179 T01440056 $